sensor_id;sensor_type;location;lat;lon;timestamp;pressure;altitude;pressure_sealevel;temperature;humidity
498;BME280;39559;48.630;9.162;2023-08-06T00:02:09;96733.19;;;12.93;100.00
498;BME280;39559;48.630;9.162;2023-08-06T00:04:34;96731.72;;;12.89;100.00
498;BME280;39559;48.630;9.162;2023-08-06T00:07:00;96733.31;;;12.92;100.00
498;BME280;39559;48.630;9.162;2023-08-06T00:09:26;96729.75;;;12.65;100.00
498;BME280;39559;48.630;9.162;2023-08-06T00:11:51;96724.28;;;12.56;100.00
498;BME280;39559;48.630;9.162;2023-08-06T00:16:21;96731.28;;;12.55;100.00
498;BME280;39559;48.630;9.162;2023-08-06T00:18:46;96721.59;;;12.57;100.00
498;BME280;39559;48.630;9.162;2023-08-06T00:21:12;96721.31;;;12.47;100.00
498;BME280;39559;48.630;9.162;2023-08-06T00:23:39;96718.03;;;12.58;100.00
498;BME280;39559;48.630;9.162;2023-08-06T00:26:04;96721.59;;;12.57;100.00
498;BME280;39559;48.630;9.162;2023-08-06T00:28:30;96729.44;;;12.43;100.00
498;BME280;39559;48.630;9.162;2023-08-06T00:30:56;96735.28;;;12.46;100.00
498;BME280;39559;48.630;9.162;2023-08-06T00:33:22;96738.31;;;12.53;100.00
498;BME280;39559;48.630;9.162;2023-08-06T00:35:48;96740.81;;;12.69;100.00
498;BME280;39559;48.630;9.162;2023-08-06T00:40:20;96720.88;;;12.41;100.00
498;BME280;39559;48.630;9.162;2023-08-06T00:42:46;96731.47;;;12.38;100.00
498;BME280;39559;48.630;9.162;2023-08-06T00:45:12;96722.19;;;12.34;100.00
498;BME280;39559;48.630;9.162;2023-08-06T00:47:37;96705.47;;;12.23;100.00
498;BME280;39559;48.630;9.162;2023-08-06T00:50:07;96706.13;;;12.13;100.00
498;BME280;39559;48.630;9.162;2023-08-06T00:52:33;96706.38;;;12.22;100.00
498;BME280;39559;48.630;9.162;2023-08-06T00:54:59;96703.25;;;12.17;100.00
498;BME280;39559;48.630;9.162;2023-08-06T00:57:25;96707.25;;;12.08;100.00
498;BME280;39559;48.630;9.162;2023-08-06T00:59:52;96701.00;;;12.25;100.00
498;BME280;39559;48.630;9.162;2023-08-06T01:04:14;96698.22;;;12.14;100.00
498;BME280;39559;48.630;9.162;2023-08-06T01:06:55;96698.41;;;12.11;100.00
498;BME280;39559;48.630;9.162;2023-08-06T01:09:45;96685.91;;;11.87;100.00
498;BME280;39559;48.630;9.162;2023-08-06T01:12:34;96688.53;;;11.87;100.00
498;BME280;39559;48.630;9.162;2023-08-06T01:15:23;96690.16;;;11.90;100.00
498;BME280;39559;48.630;9.162;2023-08-06T01:17:50;96689.25;;;11.89;100.00
498;BME280;39559;48.630;9.162;2023-08-06T01:20:15;96689.03;;;12.08;100.00
498;BME280;39559;48.630;9.162;2023-08-06T01:22:41;96689.56;;;11.85;100.00
498;BME280;39559;48.630;9.162;2023-08-06T01:25:07;96694.69;;;11.86;100.00
498;BME280;39559;48.630;9.162;2023-08-06T01:28:35;96694.28;;;11.64;100.00
498;BME280;39559;48.630;9.162;2023-08-06T01:31:01;96698.56;;;11.65;100.00
498;BME280;39559;48.630;9.162;2023-08-06T01:33:31;96692.97;;;11.57;100.00
498;BME280;39559;48.630;9.162;2023-08-06T01:35:58;96688.06;;;11.52;100.00
498;BME280;39559;48.630;9.162;2023-08-06T01:38:24;96683.97;;;11.48;100.00
498;BME280;39559;48.630;9.162;2023-08-06T01:40:50;96686.28;;;11.52;100.00
498;BME280;39559;48.630;9.162;2023-08-06T01:43:16;96684.63;;;11.51;100.00
498;BME280;39559;48.630;9.162;2023-08-06T01:45:42;96684.44;;;11.69;100.00
498;BME280;39559;48.630;9.162;2023-08-06T01:48:07;96683.13;;;11.62;100.00
498;BME280;39559;48.630;9.162;2023-08-06T01:52:07;96676.25;;;11.46;100.00
498;BME280;39559;48.630;9.162;2023-08-06T01:54:33;96675.28;;;11.33;100.00
498;BME280;39559;48.630;9.162;2023-08-06T01:56:58;96675.47;;;11.30;100.00
498;BME280;39559;48.630;9.162;2023-08-06T01:59:24;96668.97;;;11.23;100.00
498;BME280;39559;48.630;9.162;2023-08-06T02:01:50;96672.22;;;11.26;100.00
498;BME280;39559;48.630;9.162;2023-08-06T02:04:16;96667.28;;;11.22;100.00
498;BME280;39559;48.630;9.162;2023-08-06T02:06:41;96667.28;;;11.22;100.00
498;BME280;39559;48.630;9.162;2023-08-06T02:09:07;96667.94;;;11.25;100.00
498;BME280;39559;48.630;9.162;2023-08-06T02:11:32;96662.75;;;11.25;100.00
498;BME280;39559;48.630;9.162;2023-08-06T02:16:07;96661.34;;;11.20;100.00
498;BME280;39559;48.630;9.162;2023-08-06T02:18:33;96654.75;;;11.14;100.00
498;BME280;39559;48.630;9.162;2023-08-06T02:20:59;96645.38;;;11.26;100.00
498;BME280;39559;48.630;9.162;2023-08-06T02:23:26;96649.63;;;11.12;100.00
498;BME280;39559;48.630;9.162;2023-08-06T02:26:01;96633.34;;;10.94;100.00
498;BME280;39559;48.630;9.162;2023-08-06T02:28:28;96631.94;;;10.89;100.00
498;BME280;39559;48.630;9.162;2023-08-06T02:30:54;96626.00;;;10.87;100.00
498;BME280;39559;48.630;9.162;2023-08-06T02:33:20;96622.81;;;10.82;100.00
498;BME280;39559;48.630;9.162;2023-08-06T02:35:46;96629.50;;;10.86;100.00
498;BME280;39559;48.630;9.162;2023-08-06T02:40:01;96624.50;;;10.83;100.00
498;BME280;39559;48.630;9.162;2023-08-06T02:42:27;96620.22;;;10.82;100.00
498;BME280;39559;48.630;9.162;2023-08-06T02:44:53;96609.06;;;10.95;100.00
498;BME280;39559;48.630;9.162;2023-08-06T02:47:20;96609.06;;;10.95;100.00
498;BME280;39559;48.630;9.162;2023-08-06T02:49:46;96595.34;;;11.37;100.00
498;BME280;39559;48.630;9.162;2023-08-06T02:52:18;96596.22;;;11.51;100.00
498;BME280;39559;48.630;9.162;2023-08-06T02:54:44;96596.81;;;11.84;100.00
498;BME280;39559;48.630;9.162;2023-08-06T02:57:09;96591.06;;;11.93;100.00
498;BME280;39559;48.630;9.162;2023-08-06T02:59:35;96585.88;;;11.93;100.00
498;BME280;39559;48.630;9.162;2023-08-06T03:03:57;96579.09;;;12.05;100.00
498;BME280;39559;48.630;9.162;2023-08-06T03:06:23;96583.56;;;12.03;100.00
498;BME280;39559;48.630;9.162;2023-08-06T03:08:49;96574.88;;;12.02;100.00
498;BME280;39559;48.630;9.162;2023-08-06T03:11:16;96573.88;;;12.05;100.00
498;BME280;39559;48.630;9.162;2023-08-06T03:13:42;96568.09;;;12.14;100.00
498;BME280;39559;48.630;9.162;2023-08-06T03:16:09;96563.63;;;12.16;100.00
498;BME280;39559;48.630;9.162;2023-08-06T03:18:35;96561.88;;;12.29;100.00
498;BME280;39559;48.630;9.162;2023-08-06T03:21:01;96563.44;;;12.19;100.00
498;BME280;39559;48.630;9.162;2023-08-06T03:23:27;96568.38;;;12.37;100.00
498;BME280;39559;48.630;9.162;2023-08-06T03:27:55;96574.72;;;12.33;100.00
498;BME280;39559;48.630;9.162;2023-08-06T03:30:21;96573.06;;;12.32;100.00
498;BME280;39559;48.630;9.162;2023-08-06T03:32:46;96574.34;;;12.39;100.00
498;BME280;39559;48.630;9.162;2023-08-06T03:35:12;96578.53;;;12.54;100.00
498;BME280;39559;48.630;9.162;2023-08-06T03:37:38;96569.34;;;12.48;100.00
498;BME280;39559;48.630;9.162;2023-08-06T03:40:04;96580.59;;;12.49;100.00
498;BME280;39559;48.630;9.162;2023-08-06T03:42:30;96575.25;;;12.38;100.00
498;BME280;39559;48.630;9.162;2023-08-06T03:44:55;96580.41;;;12.52;100.00
498;BME280;39559;48.630;9.162;2023-08-06T03:47:21;96585.34;;;12.42;100.00
498;BME280;39559;48.630;9.162;2023-08-06T03:51:52;96574.06;;;12.56;100.00
498;BME280;39559;48.630;9.162;2023-08-06T03:54:18;96572.44;;;12.68;100.00
498;BME280;39559;48.630;9.162;2023-08-06T03:56:43;96568.81;;;12.83;100.00
498;BME280;39559;48.630;9.162;2023-08-06T03:59:09;96559.91;;;12.73;100.00
498;BME280;39559;48.630;9.162;2023-08-06T04:01:34;96563.47;;;12.72;100.00
498;BME280;39559;48.630;9.162;2023-08-06T04:04:00;96554.13;;;12.82;100.00
498;BME280;39559;48.630;9.162;2023-08-06T04:06:25;96553.91;;;12.85;100.00
498;BME280;39559;48.630;9.162;2023-08-06T04:08:51;96553.78;;;12.74;100.00
498;BME280;39559;48.630;9.162;2023-08-06T04:11:17;96565.13;;;12.73;100.00
498;BME280;39559;48.630;9.162;2023-08-06T04:15:50;96579.19;;;12.71;100.00
498;BME280;39559;48.630;9.162;2023-08-06T04:18:16;96573.66;;;12.62;100.00
498;BME280;39559;48.630;9.162;2023-08-06T04:20:47;96575.53;;;12.60;100.00
498;BME280;39559;48.630;9.162;2023-08-06T04:23:15;96562.72;;;12.57;100.00
498;BME280;39559;48.630;9.162;2023-08-06T04:25:40;96573.34;;;12.54;100.00
498;BME280;39559;48.630;9.162;2023-08-06T04:28:07;96572.59;;;12.52;100.00
498;BME280;39559;48.630;9.162;2023-08-06T04:30:33;96570.91;;;12.51;100.00
498;BME280;39559;48.630;9.162;2023-08-06T04:32:59;96577.53;;;12.42;100.00
498;BME280;39559;48.630;9.162;2023-08-06T04:35:24;96592.16;;;12.45;100.00
498;BME280;39559;48.630;9.162;2023-08-06T04:39:46;96587.59;;;12.48;100.00
498;BME280;39559;48.630;9.162;2023-08-06T04:42:12;96588.03;;;12.55;100.00
498;BME280;39559;48.630;9.162;2023-08-06T04:44:37;96590.72;;;12.54;100.00
498;BME280;39559;48.630;9.162;2023-08-06T04:47:03;96592.16;;;12.45;100.00
498;BME280;39559;48.630;9.162;2023-08-06T04:49:29;96602.16;;;12.51;100.00
498;BME280;39559;48.630;9.162;2023-08-06T04:51:54;96599.63;;;12.37;100.00
498;BME280;39559;48.630;9.162;2023-08-06T04:54:20;96594.41;;;12.37;100.00
498;BME280;39559;48.630;9.162;2023-08-06T04:56:46;96601.63;;;12.46;100.00
498;BME280;39559;48.630;9.162;2023-08-06T04:59:11;96597.88;;;12.37;100.00
498;BME280;39559;48.630;9.162;2023-08-06T05:03:43;96605.91;;;12.47;100.00
498;BME280;39559;48.630;9.162;2023-08-06T05:06:09;96605.91;;;12.47;100.00
498;BME280;39559;48.630;9.162;2023-08-06T05:08:36;96609.09;;;12.38;100.00
498;BME280;39559;48.630;9.162;2023-08-06T05:11:02;96602.56;;;12.45;100.00
498;BME280;39559;48.630;9.162;2023-08-06T05:13:28;96603.59;;;12.42;100.00
498;BME280;39559;48.630;9.162;2023-08-06T05:15:54;96594.06;;;12.56;100.00
498;BME280;39559;48.630;9.162;2023-08-06T05:18:20;96592.75;;;12.63;100.00
498;BME280;39559;48.630;9.162;2023-08-06T05:20:45;96595.94;;;12.54;100.00
498;BME280;39559;48.630;9.162;2023-08-06T05:23:11;96596.97;;;12.51;100.00
498;BME280;39559;48.630;9.162;2023-08-06T05:27:41;96595.34;;;12.63;100.00
498;BME280;39559;48.630;9.162;2023-08-06T05:30:07;96594.84;;;12.83;100.00
498;BME280;39559;48.630;9.162;2023-08-06T05:32:33;96595.81;;;12.82;100.00
498;BME280;39559;48.630;9.162;2023-08-06T05:34:58;96586.84;;;12.86;100.00
498;BME280;39559;48.630;9.162;2023-08-06T05:37:24;96594.59;;;13.01;100.00
498;BME280;39559;48.630;9.162;2023-08-06T05:39:50;96600.94;;;13.10;100.00
498;BME280;39559;48.630;9.162;2023-08-06T05:42:16;96607.00;;;13.23;100.00
498;BME280;39559;48.630;9.162;2023-08-06T05:44:41;96606.47;;;13.18;100.00
498;BME280;39559;48.630;9.162;2023-08-06T05:47:07;96603.97;;;13.29;100.00
498;BME280;39559;48.630;9.162;2023-08-06T05:51:37;96620.09;;;13.36;100.00
498;BME280;39559;48.630;9.162;2023-08-06T05:54:03;96610.88;;;13.30;100.00
498;BME280;39559;48.630;9.162;2023-08-06T05:56:28;96623.19;;;13.28;100.00
498;BME280;39559;48.630;9.162;2023-08-06T05:58:54;96622.06;;;13.32;100.00
498;BME280;39559;48.630;9.162;2023-08-06T06:01:19;96617.16;;;13.40;100.00
498;BME280;39559;48.630;9.162;2023-08-06T06:03:45;96619.63;;;13.29;100.00
498;BME280;39559;48.630;9.162;2023-08-06T06:06:11;96619.63;;;13.29;100.00
498;BME280;39559;48.630;9.162;2023-08-06T06:08:36;96628.38;;;13.02;100.00
498;BME280;39559;48.630;9.162;2023-08-06T06:11:02;96633.47;;;13.04;100.00
498;BME280;39559;48.630;9.162;2023-08-06T06:15:35;96624.53;;;13.21;100.00
498;BME280;39559;48.630;9.162;2023-08-06T06:18:01;96621.91;;;13.08;100.00
498;BME280;39559;48.630;9.162;2023-08-06T06:20:26;96633.97;;;12.96;100.00
498;BME280;39559;48.630;9.162;2023-08-06T06:22:52;96630.03;;;13.16;100.00
498;BME280;39559;48.630;9.162;2023-08-06T06:25:17;96638.19;;;13.24;100.00
498;BME280;39559;48.630;9.162;2023-08-06T06:27:43;96637.34;;;13.24;100.00
498;BME280;39559;48.630;9.162;2023-08-06T06:30:09;96649.13;;;13.17;100.00
498;BME280;39559;48.630;9.162;2023-08-06T06:32:34;96644.25;;;13.25;100.00
498;BME280;39559;48.630;9.162;2023-08-06T06:35:00;96654.13;;;13.20;100.00
498;BME280;39559;48.630;9.162;2023-08-06T06:39:33;96646.13;;;13.23;100.00
498;BME280;39559;48.630;9.162;2023-08-06T06:41:58;96653.72;;;13.26;100.00
498;BME280;39559;48.630;9.162;2023-08-06T06:44:24;96655.28;;;13.16;100.00
498;BME280;39559;48.630;9.162;2023-08-06T06:46:49;96653.84;;;13.24;100.00
498;BME280;39559;48.630;9.162;2023-08-06T06:49:15;96651.09;;;13.26;100.00
498;BME280;39559;48.630;9.162;2023-08-06T06:51:40;96652.31;;;13.35;100.00
498;BME280;39559;48.630;9.162;2023-08-06T06:54:06;96657.22;;;13.39;100.00
498;BME280;39559;48.630;9.162;2023-08-06T06:56:31;96651.00;;;13.28;100.00
498;BME280;39559;48.630;9.162;2023-08-06T06:58:56;96660.81;;;13.24;100.00
498;BME280;39559;48.630;9.162;2023-08-06T07:03:31;96656.41;;;13.39;100.00
498;BME280;39559;48.630;9.162;2023-08-06T07:05:57;96659.34;;;13.20;100.00
498;BME280;39559;48.630;9.162;2023-08-06T07:08:26;96662.06;;;13.18;100.00
498;BME280;39559;48.630;9.162;2023-08-06T07:11:03;96660.69;;;13.13;100.00
498;BME280;39559;48.630;9.162;2023-08-06T07:13:29;96672.16;;;13.10;100.00
498;BME280;39559;48.630;9.162;2023-08-06T07:15:55;96661.41;;;13.02;100.00
498;BME280;39559;48.630;9.162;2023-08-06T07:18:22;96658.16;;;12.98;100.00
498;BME280;39559;48.630;9.162;2023-08-06T07:20:51;96660.47;;;13.03;100.00
498;BME280;39559;48.630;9.162;2023-08-06T07:23:31;96664.44;;;13.09;100.00
498;BME280;39559;48.630;9.162;2023-08-06T07:27:28;96668.41;;;13.14;100.00
498;BME280;39559;48.630;9.162;2023-08-06T07:33:03;96670.28;;;12.99;100.00
498;BME280;39559;48.630;9.162;2023-08-06T07:35:29;96667.72;;;12.85;100.00
498;BME280;39559;48.630;9.162;2023-08-06T07:37:55;96670.47;;;12.96;100.00
498;BME280;39559;48.630;9.162;2023-08-06T07:40:20;96671.78;;;12.89;100.00
498;BME280;39559;48.630;9.162;2023-08-06T07:42:46;96677.03;;;13.02;100.00
498;BME280;39559;48.630;9.162;2023-08-06T07:45:12;96678.09;;;12.99;100.00
498;BME280;39559;48.630;9.162;2023-08-06T07:47:37;96672.78;;;13.01;100.00
498;BME280;39559;48.630;9.162;2023-08-06T07:51:24;96670.94;;;13.16;100.00
498;BME280;39559;48.630;9.162;2023-08-06T07:53:50;96676.03;;;13.04;100.00
498;BME280;39559;48.630;9.162;2023-08-06T07:56:16;96670.81;;;13.04;100.00
498;BME280;39559;48.630;9.162;2023-08-06T07:58:41;96667.59;;;13.14;100.00
498;BME280;39559;48.630;9.162;2023-08-06T08:01:07;96677.94;;;13.28;100.00
498;BME280;39559;48.630;9.162;2023-08-06T08:03:33;96674.84;;;13.36;100.00
498;BME280;39559;48.630;9.162;2023-08-06T08:05:59;96680.34;;;13.31;100.00
498;BME280;39559;48.630;9.162;2023-08-06T08:08:24;96669.53;;;13.37;100.00
498;BME280;39559;48.630;9.162;2023-08-06T08:10:50;96667.97;;;13.73;100.00
498;BME280;39559;48.630;9.162;2023-08-06T08:15:22;96669.94;;;13.70;100.00
498;BME280;39559;48.630;9.162;2023-08-06T08:17:47;96672.56;;;13.82;100.00
498;BME280;39559;48.630;9.162;2023-08-06T08:20:13;96669.44;;;13.77;100.00
498;BME280;39559;48.630;9.162;2023-08-06T08:22:39;96671.41;;;13.87;100.00
498;BME280;39559;48.630;9.162;2023-08-06T08:25:04;96671.31;;;14.01;100.00
498;BME280;39559;48.630;9.162;2023-08-06T08:27:30;96679.34;;;13.85;100.00
498;BME280;39559;48.630;9.162;2023-08-06T08:29:56;96684.66;;;13.83;100.00
498;BME280;39559;48.630;9.162;2023-08-06T08:32:22;96680.72;;;13.78;100.00
498;BME280;39559;48.630;9.162;2023-08-06T08:34:49;96671.72;;;13.69;100.00
498;BME280;39559;48.630;9.162;2023-08-06T08:39:19;96679.34;;;13.47;100.00
498;BME280;39559;48.630;9.162;2023-08-06T08:41:44;96687.72;;;13.52;100.00
498;BME280;39559;48.630;9.162;2023-08-06T08:44:10;96673.59;;;13.54;100.00
498;BME280;39559;48.630;9.162;2023-08-06T08:46:36;96674.34;;;13.56;100.00
498;BME280;39559;48.630;9.162;2023-08-06T08:49:03;96675.91;;;13.59;100.00
498;BME280;39559;48.630;9.162;2023-08-06T08:51:30;96672.69;;;13.68;100.00
498;BME280;39559;48.630;9.162;2023-08-06T08:53:56;96671.94;;;13.79;100.00
498;BME280;39559;48.630;9.162;2023-08-06T08:56:23;96682.50;;;13.65;100.00
498;BME280;39559;48.630;9.162;2023-08-06T08:58:49;96682.25;;;13.55;100.00
498;BME280;39559;48.630;9.162;2023-08-06T09:03:16;96689.16;;;13.69;100.00
498;BME280;39559;48.630;9.162;2023-08-06T09:05:49;96687.72;;;13.77;100.00
498;BME280;39559;48.630;9.162;2023-08-06T09:08:18;96689.59;;;13.75;100.00
498;BME280;39559;48.630;9.162;2023-08-06T09:10:48;96686.25;;;13.86;100.00
498;BME280;39559;48.630;9.162;2023-08-06T09:13:15;96686.66;;;13.93;100.00
498;BME280;39559;48.630;9.162;2023-08-06T09:15:41;96687.25;;;14.09;100.00
498;BME280;39559;48.630;9.162;2023-08-06T09:18:10;96685.88;;;14.16;100.00
498;BME280;39559;48.630;9.162;2023-08-06T09:20:37;96685.06;;;14.53;100.00
498;BME280;39559;48.630;9.162;2023-08-06T09:23:10;96679.19;;;14.62;100.00
498;BME280;39559;48.630;9.162;2023-08-06T09:27:14;96683.72;;;14.47;100.00
498;BME280;39559;48.630;9.162;2023-08-06T09:29:46;96683.41;;;14.52;100.00
498;BME280;39559;48.630;9.162;2023-08-06T09:32:12;96677.56;;;14.48;100.00
498;BME280;39559;48.630;9.162;2023-08-06T09:34:46;96685.91;;;14.66;100.00
498;BME280;39559;48.630;9.162;2023-08-06T09:37:12;96685.03;;;15.14;100.00
498;BME280;39559;48.630;9.162;2023-08-06T09:39:38;96678.22;;;15.35;100.00
498;BME280;39559;48.630;9.162;2023-08-06T09:42:04;96684.38;;;15.34;100.00
498;BME280;39559;48.630;9.162;2023-08-06T09:44:32;96693.50;;;14.93;100.00
498;BME280;39559;48.630;9.162;2023-08-06T09:46:59;96688.38;;;14.68;100.00
498;BME280;39559;48.630;9.162;2023-08-06T09:51:10;96691.84;;;14.68;100.00
498;BME280;39559;48.630;9.162;2023-08-06T09:53:40;96698.84;;;14.68;100.00
498;BME280;39559;48.630;9.162;2023-08-06T09:56:06;96695.66;;;14.38;100.00
498;BME280;39559;48.630;9.162;2023-08-06T09:58:32;96698.22;;;14.14;100.00
498;BME280;39559;48.630;9.162;2023-08-06T10:00:59;96700.22;;;13.98;100.00
498;BME280;39559;48.630;9.162;2023-08-06T10:03:25;96701.91;;;13.86;100.00
498;BME280;39559;48.630;9.162;2023-08-06T10:05:53;96701.88;;;13.48;100.00
498;BME280;39559;48.630;9.162;2023-08-06T10:08:20;96711.66;;;13.31;100.00
498;BME280;39559;48.630;9.162;2023-08-06T10:10:46;96705.34;;;13.21;100.00
498;BME280;39559;48.630;9.162;2023-08-06T10:15:11;96710.81;;;13.03;100.00
498;BME280;39559;48.630;9.162;2023-08-06T10:17:38;96713.44;;;13.03;100.00
498;BME280;39559;48.630;9.162;2023-08-06T10:20:05;96717.59;;;13.06;100.00
498;BME280;39559;48.630;9.162;2023-08-06T10:22:33;96717.72;;;13.04;100.00
498;BME280;39559;48.630;9.162;2023-08-06T10:25:01;96716.88;;;13.04;100.00
498;BME280;39559;48.630;9.162;2023-08-06T10:27:32;96715.16;;;13.17;100.00
498;BME280;39559;48.630;9.162;2023-08-06T10:30:32;96728.09;;;13.19;100.00
498;BME280;39559;48.630;9.162;2023-08-06T10:33:03;96728.72;;;13.22;100.00
498;BME280;39559;48.630;9.162;2023-08-06T10:35:30;96717.66;;;13.19;100.00
498;BME280;39559;48.630;9.162;2023-08-06T10:39:03;96738.72;;;13.43;100.00
498;BME280;39559;48.630;9.162;2023-08-06T10:41:29;96742.34;;;13.40;100.00
498;BME280;39559;48.630;9.162;2023-08-06T10:44:09;96739.66;;;13.68;100.00
498;BME280;39559;48.630;9.162;2023-08-06T10:46:35;96744.56;;;13.47;100.00
498;BME280;39559;48.630;9.162;2023-08-06T10:49:01;96745.25;;;13.36;100.00
498;BME280;39559;48.630;9.162;2023-08-06T10:51:27;96747.69;;;13.39;100.00
498;BME280;39559;48.630;9.162;2023-08-06T10:53:53;96744.53;;;13.34;100.00
498;BME280;39559;48.630;9.162;2023-08-06T10:56:20;96747.03;;;13.35;100.00
498;BME280;39559;48.630;9.162;2023-08-06T10:58:53;96746.81;;;13.38;100.00
498;BME280;39559;48.630;9.162;2023-08-06T11:03:03;96748.69;;;13.36;100.00
498;BME280;39559;48.630;9.162;2023-08-06T11:05:29;96745.81;;;13.41;100.00
498;BME280;39559;48.630;9.162;2023-08-06T11:07:54;96744.84;;;13.42;100.00
498;BME280;39559;48.630;9.162;2023-08-06T11:10:20;96743.91;;;13.43;100.00
498;BME280;39559;48.630;9.162;2023-08-06T11:12:45;96754.56;;;13.53;100.00
498;BME280;39559;48.630;9.162;2023-08-06T11:15:11;96755.41;;;13.53;100.00
498;BME280;39559;48.630;9.162;2023-08-06T11:17:40;96755.53;;;13.52;100.00
498;BME280;39559;48.630;9.162;2023-08-06T11:20:06;96760.31;;;13.58;100.00
498;BME280;39559;48.630;9.162;2023-08-06T11:22:32;96756.78;;;13.59;100.00
498;BME280;39559;48.630;9.162;2023-08-06T11:26:57;96769.50;;;13.63;100.00
498;BME280;39559;48.630;9.162;2023-08-06T11:29:23;96773.28;;;13.72;100.00
498;BME280;39559;48.630;9.162;2023-08-06T11:31:49;96775.78;;;13.61;100.00
498;BME280;39559;48.630;9.162;2023-08-06T11:34:15;96776.81;;;13.71;100.00
498;BME280;39559;48.630;9.162;2023-08-06T11:36:42;96776.00;;;13.71;100.00
498;BME280;39559;48.630;9.162;2023-08-06T11:39:07;96784.84;;;13.55;100.00
498;BME280;39559;48.630;9.162;2023-08-06T11:41:36;96779.31;;;13.60;100.00
498;BME280;39559;48.630;9.162;2023-08-06T11:44:03;96786.41;;;13.58;100.00
498;BME280;39559;48.630;9.162;2023-08-06T11:46:29;96783.19;;;13.67;100.00
498;BME280;39559;48.630;9.162;2023-08-06T11:50:55;96789.78;;;13.86;100.00
498;BME280;39559;48.630;9.162;2023-08-06T11:53:27;96791.13;;;13.78;100.00
498;BME280;39559;48.630;9.162;2023-08-06T11:55:54;96789.75;;;13.60;100.00
498;BME280;39559;48.630;9.162;2023-08-06T11:58:20;96808.47;;;13.67;100.00
498;BME280;39559;48.630;9.162;2023-08-06T12:00:45;96796.56;;;13.62;100.00
498;BME280;39559;48.630;9.162;2023-08-06T12:03:11;96805.94;;;13.65;100.00
498;BME280;39559;48.630;9.162;2023-08-06T12:05:37;96796.25;;;13.80;100.00
498;BME280;39559;48.630;9.162;2023-08-06T12:08:04;96824.22;;;13.78;100.00
498;BME280;39559;48.630;9.162;2023-08-06T12:10:30;96810.25;;;13.66;100.00
498;BME280;39559;48.630;9.162;2023-08-06T12:14:52;96823.16;;;13.68;100.00
498;BME280;39559;48.630;9.162;2023-08-06T12:17:17;96828.78;;;13.61;100.00
498;BME280;39559;48.630;9.162;2023-08-06T12:19:44;96832.72;;;13.54;100.00
498;BME280;39559;48.630;9.162;2023-08-06T12:22:10;96839.81;;;13.52;100.00
498;BME280;39559;48.630;9.162;2023-08-06T12:24:36;96840.22;;;13.46;100.00
498;BME280;39559;48.630;9.162;2023-08-06T12:27:02;96847.00;;;13.49;100.00
498;BME280;39559;48.630;9.162;2023-08-06T12:29:28;96839.22;;;13.61;100.00
498;BME280;39559;48.630;9.162;2023-08-06T12:31:53;96848.00;;;13.73;100.00
498;BME280;39559;48.630;9.162;2023-08-06T12:34:19;96852.84;;;13.79;100.00
498;BME280;39559;48.630;9.162;2023-08-06T12:38:49;96842.75;;;13.60;100.00
498;BME280;39559;48.630;9.162;2023-08-06T12:41:15;96852.38;;;13.60;100.00
498;BME280;39559;48.630;9.162;2023-08-06T12:43:40;96854.97;;;13.60;100.00
498;BME280;39559;48.630;9.162;2023-08-06T12:46:06;96851.13;;;13.66;100.00
498;BME280;39559;48.630;9.162;2023-08-06T12:48:31;96852.41;;;13.73;100.00
498;BME280;39559;48.630;9.162;2023-08-06T12:50:57;96864.06;;;13.67;100.00
498;BME280;39559;48.630;9.162;2023-08-06T12:53:22;96864.91;;;13.68;100.00
498;BME280;39559;48.630;9.162;2023-08-06T12:55:48;96866.41;;;13.72;100.00
498;BME280;39559;48.630;9.162;2023-08-06T12:58:14;96867.78;;;13.77;100.00
498;BME280;39559;48.630;9.162;2023-08-06T13:02:46;96876.19;;;13.68;100.00
498;BME280;39559;48.630;9.162;2023-08-06T13:05:11;96880.88;;;13.63;100.00
498;BME280;39559;48.630;9.162;2023-08-06T13:07:37;96879.19;;;13.62;100.00
498;BME280;39559;48.630;9.162;2023-08-06T13:10:02;96884.75;;;13.70;100.00
498;BME280;39559;48.630;9.162;2023-08-06T13:12:28;96881.75;;;13.76;100.00
498;BME280;39559;48.630;9.162;2023-08-06T13:14:53;96877.25;;;13.78;100.00
498;BME280;39559;48.630;9.162;2023-08-06T13:17:22;96881.22;;;13.84;100.00
498;BME280;39559;48.630;9.162;2023-08-06T13:19:48;96878.78;;;13.95;100.00
498;BME280;39559;48.630;9.162;2023-08-06T13:22:13;96882.03;;;14.12;100.00
498;BME280;39559;48.630;9.162;2023-08-06T13:26:42;96888.94;;;14.13;100.00
498;BME280;39559;48.630;9.162;2023-08-06T13:29:08;96884.13;;;14.19;100.00
498;BME280;39559;48.630;9.162;2023-08-06T13:31:34;96886.13;;;14.16;100.00
498;BME280;39559;48.630;9.162;2023-08-06T13:33:59;96887.47;;;14.21;100.00
498;BME280;39559;48.630;9.162;2023-08-06T13:36:28;96890.72;;;14.38;100.00
498;BME280;39559;48.630;9.162;2023-08-06T13:38:54;96892.28;;;14.40;100.00
498;BME280;39559;48.630;9.162;2023-08-06T13:41:20;96910.56;;;14.40;100.00
498;BME280;39559;48.630;9.162;2023-08-06T13:43:46;96893.56;;;14.48;100.00
498;BME280;39559;48.630;9.162;2023-08-06T13:46:12;96905.88;;;14.46;100.00
498;BME280;39559;48.630;9.162;2023-08-06T13:50:39;96897.13;;;14.47;100.00
498;BME280;39559;48.630;9.162;2023-08-06T13:53:05;96901.81;;;14.54;100.00
498;BME280;39559;48.630;9.162;2023-08-06T13:55:30;96899.09;;;14.56;100.00
498;BME280;39559;48.630;9.162;2023-08-06T13:57:56;96900.91;;;14.68;100.00
498;BME280;39559;48.630;9.162;2023-08-06T14:00:21;96897.16;;;15.22;100.00
498;BME280;39559;48.630;9.162;2023-08-06T14:02:47;96893.22;;;15.41;100.00
498;BME280;39559;48.630;9.162;2023-08-06T14:05:13;96897.63;;;15.40;100.00
498;BME280;39559;48.630;9.162;2023-08-06T14:07:38;96910.97;;;15.24;100.00
498;BME280;39559;48.630;9.162;2023-08-06T14:10:04;96907.84;;;15.19;100.00
498;BME280;39559;48.630;9.162;2023-08-06T14:14:36;96914.09;;;15.29;100.00
498;BME280;39559;48.630;9.162;2023-08-06T14:17:01;96915.19;;;15.14;100.00
498;BME280;39559;48.630;9.162;2023-08-06T14:19:27;96918.56;;;14.90;100.00